GGBF weather

Bafatá Airport
Bafatá, Bafatá Region, Guinea-Bissau

Public forecast

Using degrees Celsius for public forecast. Weather courtesy of forecast.io.

Closest aviation weather report (METAR) to Bafatá Airport

Closest report is Osvaldo Vieira International Airport, 60.2 nm (111.5 km) WSW. Retrieved 2020/02/18 21:00 UTC (12 minutes ago):

GGOV 182100Z 20004KT CAVOK 26/22 Q1010 NOSIG

Closest aviation forecast (TAF) to Bafatá Airport

Closest forecast is Osvaldo Vieira International Airport, 60.2 nm (111.5 km) WSW. Retrieved 2020/02/18 18:00 UTC (3 hours ago):

TAF GGOV 181700Z 1818/1918 21006KT CAVOK BECMG 1905/1907 1200 BR BECMG 1908/1910 7000 NSW